Longford, United Kingdom

2:47 AM GMT on February 10, 2016 (GMT +0000)
Heathrow | | Change Station
CLOSE
Current Station
Airport
Location: London,
Elevation: 79 ft
Nearby Weather Stations

Elev 79 ft 51.48 °N, 0.46 °W | Updated 27 minutes ago

Overcast
Overcast
41 °F
Feels Like 34 °F
N
14
Wind Variable Wind from West

Today
High -- | Low -- °F
--% Chance of Precip.
Yesterday
High -- | Low -- °F
Precip. -- in
Pressure 29.27 in
Visibility 6.2 miles
Clouds Overcast 1900 ft
Windchill 34 °F
Dew Point 37 °F
Humidity 87%
Rainfall 0.00 in
Snow Depth Not available.
7:26 AM 5:06 PM
Waxing Crescent, 3% visible
METAR EGLL 100220Z AUTO 27012KT 9999 OVC019 05/03 Q0991
Pressure 29.27 in
Visibility 6.2 miles
Clouds Overcast 1900 ft
Windchill 34 °F
Dew Point 37 °F
Humidity 87%
Rainfall 0.00 in
Snow Depth Not available.
7:26 AM 5:06 PM
Waxing Crescent, 3% visible
METAR EGLL 100220Z AUTO 27012KT 9999 OVC019 05/03 Q0991

10-Day Weather Forecast

Almanac

Astronomy

Feb. 10, 2016 Rise Set
Actual Time
Civil Twilight
Nautical Twilight
Astronomical Twilight
Moon
Length of Visible Light
Length of Day
Tomorrow will be .
, % of the Moon is Illuminated

Today's Extremes

Country Highs Country Lows

Community

WunderPhotos

Upload Photos

1,891,786 photos uploaded!

WunderBlog® & News

Nearby

Air Quality

  Air Quality AQ Index Pollutant
Not available.

Snow Depth

Station Depth Elevation

Earthquake Activity

City Distance Mag. Time & Date
Minimum magnitude displayed is 2.5.

Coastal Water Temperatures

Place Temperature

Stations

Nearby Weather Stations

Station Location Temp. Windchill Dew Point Humidity Wind Precip. Elev Updated Type